Time;durP1;ratioP1;P1;durP2;ratioP2;P2;SDS_P1;SDS_P2;PMS_P1;PMS_P2;Temp;Humidity;BMP_temperature;BMP_pressure;BME280_temperature;BME280_humidity;BME280_pressure;Samples;Min_cycle;Max_cycle;Signal;HPM_P1;HPM_P2
2023/02/03 00:00:41;;;;;;;;;3.00;1.75;;;;;10.30;63.69;102640.97;6270737;22;46164;-74
2023/02/03 00:06:29;;;;;;;;;0.75;0.75;;;;;10.26;64.10;102647.22;6269299;22;45654;-76
2023/02/03 00:08:58;;;;;;;;;0.25;0.25;;;;;10.23;64.32;102655.19;6271425;22;47527;-74
2023/02/03 00:11:24;;;;;;;;;2.00;1.00;;;;;10.28;64.65;102661.97;6271321;22;46790;-74
2023/02/03 00:13:49;;;;;;;;;1.25;1.25;;;;;10.27;64.29;102667.25;6272541;22;45747;-74
2023/02/03 00:16:15;;;;;;;;;1.50;1.50;;;;;10.24;64.67;102667.41;6271723;22;45763;-75
2023/02/03 00:18:40;;;;;;;;;0.25;0.25;;;;;10.22;64.64;102653.50;6272608;22;45546;-74
2023/02/03 00:21:06;;;;;;;;;0.00;0.00;;;;;10.23;64.81;102652.59;6271703;22;46128;-76
2023/02/03 00:23:32;;;;;;;;;1.00;1.00;;;;;10.16;64.87;102659.81;6273176;22;45754;-74
2023/02/03 00:26:05;;;;;;;;;0.25;0.25;;;;;10.14;65.16;102648.50;6272798;22;45842;-76
2023/02/03 00:28:30;;;;;;;;;1.00;1.00;;;;;10.15;65.04;102662.47;6272338;22;46311;-76
2023/02/03 00:30:56;;;;;;;;;2.50;1.00;;;;;10.08;65.23;102644.34;6272083;22;46169;-74
2023/02/03 00:36:45;;;;;;;;;0.75;0.75;;;;;10.10;65.17;102653.00;6271862;22;45594;-74
2023/02/03 00:39:11;;;;;;;;;1.00;1.00;;;;;10.06;65.18;102646.16;6271867;22;46377;-76
2023/02/03 00:41:36;;;;;;;;;0.25;0.00;;;;;10.03;65.36;102638.44;6272411;22;46227;-74
2023/02/03 00:44:01;;;;;;;;;1.50;1.00;;;;;10.02;65.39;102644.56;6272213;22;45675;-73
2023/02/03 00:46:27;;;;;;;;;0.00;0.00;;;;;9.85;65.50;102609.41;6271832;22;45829;-76
2023/02/03 00:48:52;;;;;;;;;2.00;2.00;;;;;9.96;65.48;102634.31;6271054;22;47249;-74
2023/02/03 00:51:17;;;;;;;;;0.75;0.00;;;;;9.97;65.20;102624.69;6272157;22;45621;-73
2023/02/03 00:53:43;;;;;;;;;1.75;1.00;;;;;9.93;65.52;102620.50;6271780;22;45519;-74
2023/02/03 00:56:11;;;;;;;;;1.25;1.00;;;;;9.92;65.50;102624.88;6244618;22;45566;-74
2023/02/03 00:58:38;;;;;;;;;0.00;0.00;;;;;9.91;65.63;102628.38;6271634;22;47735;-73
2023/02/03 01:01:04;;;;;;;;;1.00;1.00;;;;;9.89;65.37;102611.00;6270983;22;46289;-73
2023/02/03 01:06:55;;;;;;;;;0.00;0.00;;;;;9.89;65.33;102616.25;6269097;22;45684;-74
2023/02/03 01:09:20;;;;;;;;;0.00;0.00;;;;;9.87;65.49;102613.72;6271528;22;45858;-74
2023/02/03 01:11:45;;;;;;;;;1.00;0.50;;;;;9.87;65.49;102602.38;6243945;22;47039;-75
2023/02/03 01:14:11;;;;;;;;;1.00;1.00;;;;;9.80;65.62;102599.13;6270297;22;45621;-75
2023/02/03 01:16:37;;;;;;;;;0.00;0.00;;;;;9.82;65.75;102583.38;6269547;22;45573;-74
2023/02/03 01:22:24;;;;;;;;;1.00;1.00;;;;;9.84;65.72;102586.75;6271426;22;45433;-73
2023/02/03 01:24:52;;;;;;;;;1.50;1.00;;;;;9.80;65.94;102565.09;6243513;22;46030;-75
2023/02/03 01:27:17;;;;;;;;;1.00;1.00;;;;;9.86;65.90;102585.81;6271398;22;45744;-75
2023/02/03 01:29:43;;;;;;;;;1.00;1.00;;;;;9.83;66.13;102570.19;6271955;22;45607;-76
2023/02/03 01:32:08;;;;;;;;;0.00;0.00;;;;;9.86;66.01;102569.25;6271933;22;45491;-74
2023/02/03 01:34:34;;;;;;;;;1.00;0.00;;;;;9.87;65.76;102574.44;6271635;22;45628;-74
2023/02/03 01:36:59;;;;;;;;;0.00;0.00;;;;;9.88;65.84;102570.88;6271922;22;45718;-75
2023/02/03 01:39:25;;;;;;;;;0.00;0.00;;;;;9.89;65.50;102564.75;6271340;22;47463;-76
2023/02/03 01:41:50;;;;;;;;;0.25;0.25;;;;;9.90;65.41;102568.22;6272089;22;46168;-76
2023/02/03 01:44:48;;;;;;;;;1.00;0.00;;;;;9.89;65.41;102569.97;6273314;22;45532;-75
2023/02/03 01:50:36;;;;;;;;;0.00;0.00;;;;;9.86;65.40;102537.84;6271194;22;45624;-75
2023/02/03 01:53:07;;;;;;;;;0.00;0.00;;;;;9.88;65.36;102536.84;6272148;22;45559;-75
2023/02/03 01:55:51;;;;;;;;;0.00;0.00;;;;;9.88;65.20;102536.03;6243790;22;45633;-75
2023/02/03 01:58:23;;;;;;;;;0.25;0.00;;;;;9.96;64.96;102534.81;6272158;22;45535;-74
2023/02/03 02:00:49;;;;;;;;;0.00;0.00;;;;;9.94;64.83;102520.06;6272003;22;47542;-74
2023/02/03 02:06:36;;;;;;;;;1.00;1.00;;;;;9.94;64.65;102520.91;6272903;22;45742;-76
2023/02/03 02:09:03;;;;;;;;;0.50;0.00;;;;;9.95;64.75;102530.50;6273550;22;45622;-73
2023/02/03 02:11:28;;;;;;;;;1.00;1.00;;;;;9.95;64.62;102527.00;6272417;22;46361;-75
2023/02/03 02:13:59;;;;;;;;;1.00;0.00;;;;;9.98;64.41;102530.38;6273339;22;45515;-73
2023/02/03 02:16:27;;;;;;;;;0.00;0.00;;;;;10.01;64.34;102532.03;6272456;22;45530;-74
2023/02/03 02:22:35;;;;;;;;;0.00;0.00;;;;;10.01;64.04;102543.34;6272933;22;46110;-74
2023/02/03 02:25:32;;;;;;;;;0.00;0.00;;;;;10.00;63.83;102540.78;6272393;22;45787;-75
2023/02/03 02:28:25;;;;;;;;;0.00;0.00;;;;;9.97;63.73;102538.28;6273735;22;45607;-76
2023/02/03 02:31:03;;;;;;;;;0.00;0.00;;;;;9.94;63.68;102527.91;6274179;22;45528;-74
2023/02/03 02:33:57;;;;;;;;;0.00;0.00;;;;;9.97;63.76;102536.53;6272708;22;46529;-75
2023/02/03 02:36:54;;;;;;;;;0.00;0.00;;;;;9.99;63.69;102536.44;6272854;22;46092;-77
2023/02/03 02:39:52;;;;;;;;;0.00;0.00;;;;;10.03;63.65;102527.59;6265671;22;45631;-75
2023/02/03 02:42:23;;;;;;;;;0.00;0.00;;;;;10.04;63.43;102527.50;6148150;23;45587;-75
2023/02/03 02:44:57;;;;;;;;;0.00;0.00;;;;;10.02;63.43;102521.50;6147710;23;47609;-74
2023/02/03 02:47:23;;;;;;;;;0.00;0.00;;;;;9.95;63.54;102503.44;6147590;23;47275;-74
2023/02/03 02:50:03;;;;;;;;;0.00;0.00;;;;;9.97;63.33;102518.19;6147723;23;45470;-74
2023/02/03 02:52:34;;;;;;;;;0.75;0.00;;;;;9.95;62.94;102522.63;6148166;23;45810;-74
2023/02/03 02:55:06;;;;;;;;;0.75;0.00;;;;;9.92;63.29;102520.13;6148182;23;46560;-75
2023/02/03 02:57:35;;;;;;;;;0.00;0.00;;;;;9.90;63.52;102514.09;6148425;23;46459;-75
2023/02/03 03:00:00;;;;;;;;;0.00;0.00;;;;;9.89;63.22;102522.84;6148001;23;45784;-74
2023/02/03 03:02:33;;;;;;;;;0.00;0.00;;;;;9.90;63.31;102528.94;6148724;23;45549;-75
2023/02/03 03:05:01;;;;;;;;;0.00;0.00;;;;;9.91;63.36;102534.13;6148123;23;46584;-74
2023/02/03 03:07:29;;;;;;;;;1.00;0.00;;;;;9.90;63.28;102532.44;6172175;23;46391;-73
2023/02/03 03:10:00;;;;;;;;;0.00;0.00;;;;;9.90;63.41;102524.56;6178527;23;45654;-73
2023/02/03 03:12:35;;;;;;;;;0.00;0.00;;;;;9.94;63.30;102523.53;6177830;23;45781;-74
2023/02/03 03:15:06;;;;;;;;;0.00;0.00;;;;;9.96;63.28;102539.19;6177853;23;46369;-75
2023/02/03 03:17:40;;;;;;;;;0.00;0.00;;;;;9.97;63.03;102546.16;6179902;23;46062;-74
2023/02/03 03:20:11;;;;;;;;;0.00;0.00;;;;;9.97;63.28;102556.63;6257698;22;45610;-73
2023/02/03 03:22:44;;;;;;;;;0.00;0.00;;;;;9.95;63.12;102554.06;6272566;22;45826;-73
2023/02/03 03:25:15;;;;;;;;;1.75;1.00;;;;;9.94;63.10;102565.44;6272699;22;46081;-75
2023/02/03 03:27:47;;;;;;;;;0.00;0.00;;;;;9.96;63.04;102574.09;6272023;22;45976;-75
2023/02/03 03:30:21;;;;;;;;;0.75;0.00;;;;;9.92;63.05;102576.88;6271707;22;45618;-74
2023/02/03 03:32:48;;;;;;;;;0.00;0.00;;;;;9.96;63.12;102581.94;6273014;22;45560;-76
2023/02/03 03:35:14;;;;;;;;;0.00;0.00;;;;;9.92;63.20;102575.13;6271819;22;46397;-74
2023/02/03 03:37:53;;;;;;;;;1.00;0.00;;;;;9.92;63.22;102580.34;6273071;22;46443;-75
2023/02/03 03:40:22;;;;;;;;;0.25;0.00;;;;;9.93;63.02;102594.31;6272464;22;45586;-75
2023/02/03 03:42:53;;;;;;;;;0.75;0.00;;;;;9.90;62.91;102597.03;6272887;22;45533;-74
2023/02/03 03:45:26;;;;;;;;;0.00;0.00;;;;;9.92;63.00;102603.06;6272279;22;47372;-76
2023/02/03 03:47:58;;;;;;;;;0.00;0.00;;;;;9.90;62.85;102631.06;6272900;22;47432;-76
2023/02/03 03:50:48;;;;;;;;;0.25;0.00;;;;;9.87;62.93;102618.09;6272603;22;45646;-74
2023/02/03 03:53:15;;;;;;;;;0.00;0.00;;;;;9.82;62.87;102623.50;6272645;22;45627;-75
2023/02/03 03:55:44;;;;;;;;;1.00;0.00;;;;;9.82;62.88;102625.25;6270276;22;47515;-75
2023/02/03 03:58:15;;;;;;;;;1.50;0.00;;;;;9.78;62.86;102618.41;6271443;22;45773;-75
2023/02/03 04:00:44;;;;;;;;;0.00;0.00;;;;;9.81;63.10;102607.84;6272788;22;45973;-75
2023/02/03 04:03:17;;;;;;;;;0.00;0.00;;;;;9.82;62.72;102610.41;6274502;22;45537;-75
2023/02/03 04:05:45;;;;;;;;;0.00;0.00;;;;;9.75;62.97;102585.34;6273283;22;46514;-75
2023/02/03 04:08:11;;;;;;;;;0.00;0.00;;;;;9.82;62.96;102583.38;6273399;22;46031;-73
2023/02/03 04:10:39;;;;;;;;;0.00;0.00;;;;;9.86;62.85;102582.34;6244895;22;45686;-73
2023/02/03 04:13:06;;;;;;;;;0.00;0.00;;;;;9.84;62.83;102573.69;6272231;22;45795;-74
2023/02/03 04:15:32;;;;;;;;;1.00;0.00;;;;;9.83;62.58;102569.34;6271963;22;46493;-74
2023/02/03 04:18:00;;;;;;;;;0.75;0.00;;;;;9.80;62.58;102559.00;6272506;22;46505;-74
2023/02/03 04:20:26;;;;;;;;;0.00;0.00;;;;;9.83;62.45;102569.34;6272892;22;45559;-75
2023/02/03 04:22:52;;;;;;;;;0.00;0.00;;;;;9.74;62.69;102570.53;6272906;22;45484;-76
2023/02/03 04:25:19;;;;;;;;;0.00;0.00;;;;;9.80;62.65;102580.81;6271970;22;45578;-74
2023/02/03 04:27:44;;;;;;;;;1.00;0.00;;;;;9.77;62.55;102561.75;6272529;22;46144;-74
2023/02/03 04:30:11;;;;;;;;;0.00;0.00;;;;;9.80;62.90;102561.63;6271377;22;45738;-74
2023/02/03 04:32:36;;;;;;;;;0.00;0.00;;;;;9.81;62.73;102558.09;6271903;22;45557;-73
2023/02/03 04:35:08;;;;;;;;;0.25;0.00;;;;;9.84;62.69;102564.06;6272091;22;46344;-75
2023/02/03 04:37:33;;;;;;;;;0.00;0.00;;;;;9.86;62.65;102550.94;6244378;22;47317;-73
2023/02/03 04:39:59;;;;;;;;;0.00;0.00;;;;;9.87;63.11;102555.25;6271353;22;45968;-73
2023/02/03 04:42:25;;;;;;;;;0.00;0.00;;;;;9.90;62.95;102556.00;6271748;22;45807;-72
2023/02/03 04:44:50;;;;;;;;;0.00;0.00;;;;;9.90;62.90;102549.91;6271283;22;46337;-73
2023/02/03 04:47:17;;;;;;;;;0.00;0.00;;;;;9.94;63.06;102567.19;6272638;22;46056;-73
2023/02/03 04:49:43;;;;;;;;;0.00;0.00;;;;;9.92;63.07;102555.94;6271610;22;45558;-74
2023/02/03 04:52:10;;;;;;;;;0.00;0.00;;;;;9.91;63.05;102573.41;6272248;22;45678;-73
2023/02/03 04:54:35;;;;;;;;;0.00;0.00;;;;;9.86;63.29;102567.50;6272738;22;45499;-75
2023/02/03 04:57:00;;;;;;;;;0.00;0.00;;;;;9.85;63.71;102567.53;6272891;22;45620;-73
2023/02/03 04:59:26;;;;;;;;;0.25;0.00;;;;;9.86;63.43;102572.72;6272286;22;45572;-77
2023/02/03 05:01:51;;;;;;;;;0.00;0.00;;;;;9.75;63.79;102551.31;6272702;22;45655;-74
2023/02/03 05:04:17;;;;;;;;;0.00;0.00;;;;;9.79;63.68;102570.38;6272395;22;46365;-75
2023/02/03 05:06:43;;;;;;;;;0.00;0.00;;;;;9.76;63.67;102565.25;6271650;22;45622;-74
2023/02/03 05:09:08;;;;;;;;;0.00;0.00;;;;;9.73;64.06;102558.34;6244432;22;45610;-75
2023/02/03 05:11:33;;;;;;;;;0.00;0.00;;;;;9.67;64.09;102541.13;6273434;22;45682;-74
2023/02/03 05:13:59;;;;;;;;;0.00;0.00;;;;;9.72;63.97;102553.22;6271924;22;46267;-74
2023/02/03 05:16:24;;;;;;;;;0.00;0.00;;;;;9.71;63.86;102561.97;6272847;22;46525;-75
2023/02/03 05:18:50;;;;;;;;;0.00;0.00;;;;;9.78;63.89;102585.22;6272292;22;45637;-75
2023/02/03 05:24:37;;;;;;;;;1.00;0.00;;;;;9.78;63.99;102606.16;6271840;22;45937;-75
2023/02/03 05:27:02;;;;;;;;;0.00;0.00;;;;;9.77;63.95;102596.59;6244249;22;46870;-74
2023/02/03 05:29:27;;;;;;;;;0.00;0.00;;;;;9.78;63.79;102608.78;6271329;22;46021;-73
2023/02/03 05:31:53;;;;;;;;;0.00;0.00;;;;;9.79;63.78;102613.13;6272481;22;45628;-73
2023/02/03 05:34:18;;;;;;;;;0.50;0.00;;;;;9.78;63.81;102602.69;6272046;22;45584;-73
2023/02/03 05:42:50;;;;;;;;;0.50;0.00;;;;;9.87;63.95;102613.72;6273686;22;45559;-76
2023/02/03 05:45:20;;;;;;;;;0.00;0.00;;;;;9.89;63.62;102622.34;6246820;22;48357;-73
2023/02/03 05:47:51;;;;;;;;;1.00;0.00;;;;;9.81;63.86;102598.22;6274654;22;45897;-75
2023/02/03 05:50:21;;;;;;;;;0.00;0.00;;;;;9.85;63.70;102604.19;6271626;22;45658;-72
2023/02/03 05:52:52;;;;;;;;;0.00;0.00;;;;;9.94;63.62;102611.69;6273140;22;45530;-75
2023/02/03 05:55:17;;;;;;;;;0.00;0.00;;;;;9.90;63.64;102607.50;6272945;22;47373;-76
2023/02/03 05:57:42;;;;;;;;;0.00;0.00;;;;;9.88;63.83;102612.78;6272906;22;47149;-76
2023/02/03 06:00:09;;;;;;;;;0.00;0.00;;;;;9.91;63.65;102619.69;6272398;22;45532;-75
2023/02/03 06:02:34;;;;;;;;;0.00;0.00;;;;;9.90;63.84;102628.44;6273417;22;45436;-75
2023/02/03 06:04:59;;;;;;;;;0.25;0.00;;;;;9.84;63.91;102624.28;6273349;22;46073;-74
2023/02/03 06:07:25;;;;;;;;;0.00;0.00;;;;;9.82;64.15;102618.25;6271834;22;46531;-72
2023/02/03 06:09:50;;;;;;;;;0.00;0.00;;;;;9.78;64.11;102616.63;6272864;22;45638;-76
2023/02/03 06:12:15;;;;;;;;;1.00;0.00;;;;;9.72;64.61;102618.63;6245475;22;45775;-75
2023/02/03 06:14:41;;;;;;;;;1.00;0.00;;;;;9.64;64.60;102605.81;6272265;22;46972;-74
2023/02/03 06:17:06;;;;;;;;;0.00;0.00;;;;;9.62;64.91;102613.69;6244556;22;47159;-73
2023/02/03 06:19:31;;;;;;;;;0.75;0.00;;;;;9.59;65.05;102600.75;6272103;22;45618;-73
2023/02/03 06:25:18;;;;;;;;;0.50;0.00;;;;;9.50;65.88;102594.97;6272829;22;45475;-74
2023/02/03 06:27:44;;;;;;;;;0.00;0.00;;;;;9.47;66.10;102606.38;6272880;22;48591;-76
2023/02/03 06:30:10;;;;;;;;;0.00;0.00;;;;;9.45;66.60;102599.47;6272285;22;45707;-74
2023/02/03 06:32:36;;;;;;;;;0.00;0.00;;;;;9.43;66.78;102602.19;6272339;22;45551;-74
2023/02/03 06:35:01;;;;;;;;;0.50;0.25;;;;;9.46;66.95;102606.44;6271995;22;47009;-73
2023/02/03 06:40:48;;;;;;;;;0.00;0.00;;;;;9.55;66.63;102611.38;6273161;22;45538;-76
2023/02/03 06:43:14;;;;;;;;;0.00;0.00;;;;;9.60;66.72;102614.69;6273249;22;45678;-75
2023/02/03 06:45:43;;;;;;;;;1.50;1.00;;;;;9.60;66.50;102605.06;6272050;22;45523;-76
2023/02/03 06:48:12;;;;;;;;;1.00;0.00;;;;;9.68;66.42;102612.63;6271677;22;45704;-74
2023/02/03 06:50:37;;;;;;;;;1.00;0.00;;;;;9.69;66.83;102606.50;6245320;22;45578;-75
2023/02/03 06:53:03;;;;;;;;;2.00;1.00;;;;;9.64;66.80;102601.44;6272869;22;45856;-74
2023/02/03 06:55:28;;;;;;;;;0.00;0.00;;;;;9.57;66.61;102580.75;6272515;22;46802;-75
2023/02/03 06:57:54;;;;;;;;;0.50;0.00;;;;;9.65;67.01;102591.81;6272345;22;47162;-73
2023/02/03 07:00:20;;;;;;;;;1.00;1.00;;;;;9.69;66.76;102603.88;6272634;22;45643;-74
2023/02/03 07:02:52;;;;;;;;;1.00;1.00;;;;;9.74;67.19;102606.34;6272380;22;45690;-74
2023/02/03 07:05:18;;;;;;;;;1.00;1.00;;;;;9.71;67.08;102609.94;6244888;22;48319;-73
2023/02/03 07:11:05;;;;;;;;;0.50;0.25;;;;;9.71;67.16;102623.00;6272334;22;45745;-75
2023/02/03 07:13:30;;;;;;;;;1.00;1.00;;;;;9.70;67.65;102631.78;6272704;22;45504;-74
2023/02/03 07:15:55;;;;;;;;;1.75;1.75;;;;;9.63;67.29;102625.03;6271883;22;47417;-73
2023/02/03 07:18:25;;;;;;;;;1.50;1.50;;;;;9.68;67.48;102630.97;6244266;22;47078;-73
2023/02/03 07:20:51;;;;;;;;;1.00;0.50;;;;;9.60;67.62;102610.31;6245702;22;45535;-74
2023/02/03 07:26:38;;;;;;;;;1.00;1.00;;;;;9.65;67.82;102636.31;6272397;22;46029;-73
2023/02/03 07:29:04;;;;;;;;;1.00;0.00;;;;;9.64;67.50;102637.22;6271831;22;46797;-72
2023/02/03 07:31:29;;;;;;;;;1.00;1.00;;;;;9.63;67.60;102641.59;6271557;22;45393;-71
2023/02/03 07:33:55;;;;;;;;;1.00;1.00;;;;;9.62;67.81;102645.09;6272322;22;45512;-71
2023/02/03 07:36:20;;;;;;;;;0.00;0.00;;;;;9.59;67.75;102650.47;6271848;22;46251;-74
2023/02/03 07:38:46;;;;;;;;;1.75;1.75;;;;;9.59;67.67;102644.38;6272081;22;46180;-73
2023/02/03 07:41:11;;;;;;;;;1.75;1.00;;;;;9.61;67.93;102642.53;6272455;22;45550;-72
2023/02/03 07:43:36;;;;;;;;;1.00;1.00;;;;;9.55;67.85;102630.53;6271845;22;45727;-76
2023/02/03 07:46:02;;;;;;;;;1.00;1.00;;;;;9.58;67.90;102621.72;6271704;22;46406;-72
2023/02/03 07:48:27;;;;;;;;;0.00;0.00;;;;;9.60;67.96;102635.63;6272216;22;45880;-74
2023/02/03 07:50:53;;;;;;;;;1.00;1.00;;;;;9.51;67.59;102623.69;6272106;22;45657;-74
2023/02/03 07:56:41;;;;;;;;;6.25;6.25;;;;;9.63;67.77;102635.50;6271658;22;45944;-74
2023/02/03 07:59:06;;;;;;;;;9.00;7.00;;;;;9.66;67.67;102645.88;6270787;22;46846;-73
2023/02/03 08:01:32;;;;;;;;;1.75;1.75;;;;;9.68;67.60;102649.28;6271650;22;45614;-74
2023/02/03 08:04:00;;;;;;;;;0.50;0.50;;;;;9.72;67.23;102650.03;6272077;22;45683;-72
2023/02/03 08:06:26;;;;;;;;;1.00;1.00;;;;;9.73;67.29;102659.56;6271369;22;46593;-73
2023/02/03 08:12:14;;;;;;;;;2.25;1.00;;;;;9.72;67.16;102661.34;6272578;22;45582;-75
2023/02/03 08:14:39;;;;;;;;;0.75;0.75;;;;;9.65;66.91;102646.78;6272702;22;45866;-73
2023/02/03 08:17:04;;;;;;;;;1.50;1.00;;;;;9.71;66.99;102661.41;6271693;22;46169;-74
2023/02/03 08:19:30;;;;;;;;;1.25;1.00;;;;;9.67;66.71;102660.66;6271083;22;46787;-71
2023/02/03 08:21:57;;;;;;;;;0.75;0.75;;;;;9.72;67.01;102670.97;6272313;22;45484;-73
2023/02/03 08:24:23;;;;;;;;;4.50;3.00;;;;;9.72;66.72;102665.75;6271562;22;45460;-72
2023/02/03 08:26:48;;;;;;;;;1.75;1.50;;;;;9.74;66.79;102680.47;6244079;22;47651;-74
2023/02/03 08:29:14;;;;;;;;;2.00;1.00;;;;;9.73;66.37;102677.91;6270968;22;47110;-72
2023/02/03 08:31:41;;;;;;;;;2.50;2.00;;;;;9.73;66.99;102677.91;6271506;22;45565;-72
2023/02/03 08:34:06;;;;;;;;;2.00;1.50;;;;;9.72;66.52;102668.38;6270511;22;45420;-72
2023/02/03 08:36:32;;;;;;;;;1.00;1.00;;;;;9.76;66.49;102676.06;6271913;22;45653;-73
2023/02/03 08:42:19;;;;;;;;;0.25;0.25;;;;;9.80;66.50;102695.13;6271801;22;45578;-74
2023/02/03 08:44:44;;;;;;;;;1.00;1.00;;;;;9.83;66.76;102702.84;6244493;22;45488;-73
2023/02/03 08:47:10;;;;;;;;;1.50;1.25;;;;;9.84;66.63;102713.28;6272145;22;45787;-73
2023/02/03 08:49:38;;;;;;;;;1.75;1.00;;;;;9.88;66.95;102714.88;6271331;22;46772;-74
2023/02/03 08:52:05;;;;;;;;;2.00;2.00;;;;;9.89;67.01;102703.50;6244112;22;45595;-73
2023/02/03 08:54:30;;;;;;;;;1.00;1.00;;;;;9.93;67.20;102702.47;6271500;22;45780;-75
2023/02/03 08:56:56;;;;;;;;;2.00;2.00;;;;;9.89;67.22;102698.25;6271860;22;45566;-73
2023/02/03 08:59:22;;;;;;;;;2.25;1.50;;;;;9.87;67.26;102701.88;6270988;22;46710;-72
2023/02/03 09:01:47;;;;;;;;;2.00;1.00;;;;;9.82;67.63;102698.56;6271227;22;45394;-73
2023/02/03 09:04:18;;;;;;;;;2.00;2.00;;;;;9.88;67.43;102712.25;6272488;22;45613;-74
2023/02/03 09:06:43;;;;;;;;;1.50;1.25;;;;;9.82;67.39;102691.56;6270350;22;46580;-74
2023/02/03 09:12:30;;;;;;;;;1.00;0.00;;;;;9.83;68.42;102703.72;6271569;22;45684;-72
2023/02/03 09:14:56;;;;;;;;;2.00;2.00;;;;;9.86;68.37;102702.75;6271892;22;45483;-73
2023/02/03 09:17:21;;;;;;;;;5.00;1.00;;;;;9.80;68.35;102702.97;6270823;22;47485;-73
2023/02/03 09:19:46;;;;;;;;;0.50;0.50;;;;;9.73;68.59;102727.63;6271619;22;46014;-74
2023/02/03 09:22:12;;;;;;;;;1.00;1.00;;;;;9.67;68.99;102706.00;6271995;22;45653;-72
2023/02/03 09:28:02;;;;;;;;;1.50;0.00;;;;;9.69;69.19;102709.44;6271210;22;45511;-73
2023/02/03 09:30:27;;;;;;;;;1.50;1.50;;;;;9.69;69.02;102708.56;6270577;22;47013;-73
2023/02/03 09:32:55;;;;;;;;;3.00;0.75;;;;;9.73;69.41;102710.16;6270476;22;45519;-74
2023/02/03 09:35:20;;;;;;;;;0.75;0.75;;;;;9.71;69.80;102712.00;6270770;22;45779;-75
2023/02/03 09:37:47;;;;;;;;;1.00;1.00;;;;;9.69;70.44;102708.56;6243480;22;47511;-72
2023/02/03 09:40:20;;;;;;;;;2.00;1.75;;;;;9.65;70.34;102713.06;6271557;22;46023;-73
2023/02/03 09:43:27;;;;;;;;;9.50;7.75;;;;;9.67;70.24;102713.84;6271220;22;45578;-74
2023/02/03 09:45:52;;;;;;;;;1.00;1.00;;;;;9.69;70.24;102724.28;6271099;22;45737;-74
2023/02/03 09:48:22;;;;;;;;;2.00;2.00;;;;;9.74;70.26;102721.50;6270937;22;46323;-73
2023/02/03 09:50:50;;;;;;;;;1.00;1.00;;;;;9.82;70.02;102735.19;6271237;22;46978;-73
2023/02/03 09:53:29;;;;;;;;;2.75;2.00;;;;;9.90;69.83;102749.72;6272191;22;45668;-73
2023/02/03 09:55:57;;;;;;;;;1.50;1.50;;;;;9.97;70.04;102737.28;6244801;22;45898;-73
2023/02/03 09:58:23;;;;;;;;;2.75;2.00;;;;;9.97;69.96;102738.16;6270910;22;45884;-74
2023/02/03 10:00:56;;;;;;;;;1.00;1.00;;;;;9.99;69.81;102744.16;6270878;22;46327;-74
2023/02/03 10:03:28;;;;;;;;;1.25;1.25;;;;;9.99;69.86;102738.94;6272075;22;45701;-72
2023/02/03 10:06:09;;;;;;;;;3.00;2.00;;;;;10.04;69.69;102744.03;6270867;22;45727;-73
2023/02/03 10:08:46;;;;;;;;;1.00;1.00;;;;;10.07;69.65;102751.78;6270773;22;46370;-74
2023/02/03 10:11:30;;;;;;;;;2.75;1.00;;;;;10.06;69.52;102750.06;6270528;22;47294;-73
2023/02/03 10:14:17;;;;;;;;;1.00;0.75;;;;;10.04;69.73;102744.03;6270848;22;45702;-73
2023/02/03 10:17:01;;;;;;;;;1.00;1.00;;;;;10.00;70.01;102745.88;6271337;22;45555;-73
2023/02/03 10:19:45;;;;;;;;;1.00;1.00;;;;;10.00;70.19;102742.41;6270624;22;46457;-73
2023/02/03 10:22:17;;;;;;;;;2.25;1.50;;;;;10.01;69.89;102747.59;6272121;22;45948;-71
2023/02/03 10:25:02;;;;;;;;;2.00;1.50;;;;;9.98;70.15;102739.88;6272344;22;45545;-74
2023/02/03 10:27:28;;;;;;;;;3.00;1.00;;;;;10.08;69.81;102749.09;6272608;22;46056;-72
2023/02/03 10:30:04;;;;;;;;;1.00;1.00;;;;;10.10;69.70;102749.88;6272469;22;46447;-74
2023/02/03 10:32:29;;;;;;;;;1.75;1.50;;;;;10.17;69.65;102744.47;6272029;22;46288;-73
2023/02/03 10:34:55;;;;;;;;;1.25;1.25;;;;;10.23;69.51;102745.13;6272462;22;45516;-74
2023/02/03 10:37:33;;;;;;;;;2.00;1.00;;;;;10.28;69.40;102758.06;6272358;22;45725;-74
2023/02/03 10:40:00;;;;;;;;;1.50;0.50;;;;;10.34;69.25;102742.13;6244642;22;48959;-72
2023/02/03 10:43:46;;;;;;;;;2.00;1.00;;;;;10.37;69.11;102749.84;6272029;22;46748;-74
2023/02/03 10:45:13;;;;;;;;;2.00;1.00;;;;;10.36;69.14;102732.44;6271840;22;45586;-72
2023/02/03 10:47:47;;;;;;;;;3.00;2.75;;;;;10.49;68.88;102746.81;6272128;22;45825;-72
2023/02/03 10:50:16;;;;;;;;;2.25;1.50;;;;;10.52;69.00;102747.56;6272712;22;46577;-72
2023/02/03 10:52:42;;;;;;;;;0.00;0.00;;;;;10.56;68.85;102753.53;6270451;22;47182;-73
2023/02/03 10:55:29;;;;;;;;;1.00;1.00;;;;;10.58;68.80;102767.44;6272244;22;45472;-73
2023/02/03 10:57:56;;;;;;;;;1.00;1.00;;;;;10.52;68.52;102752.81;6272676;22;45668;-71
2023/02/03 11:00:30;;;;;;;;;2.25;2.00;;;;;10.57;68.86;102746.53;6272416;22;46570;-74
2023/02/03 11:03:05;;;;;;;;;1.25;1.25;;;;;10.60;68.72;102735.91;6272166;22;46162;-73
2023/02/03 11:05:31;;;;;;;;;1.00;1.00;;;;;10.60;68.39;102743.78;6272655;22;45448;-74
2023/02/03 11:07:56;;;;;;;;;1.00;1.00;;;;;10.58;68.63;102730.72;6272144;22;45579;-75
2023/02/03 11:10:31;;;;;;;;;4.00;2.00;;;;;10.63;68.45;102726.19;6271909;22;46398;-74
2023/02/03 11:13:25;;;;;;;;;2.00;1.00;;;;;10.69;68.51;102723.31;6272097;22;47129;-73
2023/02/03 11:16:03;;;;;;;;;1.50;1.50;;;;;10.73;68.19;102727.56;6147449;22;45775;-75
2023/02/03 11:18:35;;;;;;;;;2.00;2.00;;;;;10.80;68.19;102720.28;6148589;23;45787;-75
2023/02/03 11:21:05;;;;;;;;;1.00;1.00;;;;;10.84;68.08;102729.78;6148237;23;46511;-74
2023/02/03 11:27:13;;;;;;;;;2.25;1.75;;;;;10.91;68.19;102725.97;6148043;23;45730;-73
2023/02/03 11:29:45;;;;;;;;;2.00;1.00;;;;;10.96;68.09;102723.22;6148153;23;45713;-73
2023/02/03 11:32:32;;;;;;;;;3.75;2.00;;;;;11.01;68.23;102721.25;6146984;23;47529;-74
2023/02/03 11:35:22;;;;;;;;;3.25;2.00;;;;;10.98;67.98;102713.50;6147436;23;46866;-71
2023/02/03 11:37:51;;;;;;;;;34.00;30.25;;;;;10.97;68.10;102719.66;6147205;23;45466;-71
2023/02/03 11:43:38;;;;;;;;;5.00;3.75;;;;;10.99;68.17;102728.31;6147615;23;45537;-71
2023/02/03 11:46:08;;;;;;;;;2.00;2.00;;;;;10.94;67.92;102718.88;6148189;23;46049;-73
2023/02/03 11:48:45;;;;;;;;;2.00;1.75;;;;;10.97;67.71;102723.13;6147319;23;45606;-74
2023/02/03 11:51:29;;;;;;;;;2.00;2.00;;;;;10.95;68.11;102727.59;6153147;22;45535;-73
2023/02/03 11:54:21;;;;;;;;;3.00;2.00;;;;;10.97;68.16;102724.91;6271849;22;45511;-73
2023/02/03 11:57:20;;;;;;;;;2.00;2.00;;;;;10.98;68.01;102732.72;6272240;22;46249;-72
2023/02/03 11:59:48;;;;;;;;;3.00;2.50;;;;;10.98;67.95;102729.22;6272459;22;45625;-73
2023/02/03 12:02:35;;;;;;;;;3.75;3.50;;;;;10.97;68.00;102714.41;6272786;22;45508;-73
2023/02/03 12:05:31;;;;;;;;;2.00;2.00;;;;;10.97;68.00;102712.63;6273744;22;47428;-72
2023/02/03 12:08:15;;;;;;;;;2.00;2.00;;;;;10.94;67.93;102705.75;6273756;22;46422;-73
2023/02/03 12:11:17;;;;;;;;;2.50;2.00;;;;;10.92;68.12;102709.34;6274024;22;45547;-74
2023/02/03 12:13:51;;;;;;;;;2.50;2.50;;;;;10.92;67.98;102701.47;6273319;22;45448;-73
2023/02/03 12:16:26;;;;;;;;;1.75;1.75;;;;;10.96;67.83;102702.22;6273029;22;46711;-71
2023/02/03 12:18:57;;;;;;;;;2.00;2.00;;;;;11.00;67.92;102703.81;6272961;22;45595;-73
2023/02/03 12:21:47;;;;;;;;;2.00;2.00;;;;;11.04;67.87;102682.66;6245106;22;45908;-74
2023/02/03 12:27:59;;;;;;;;;3.75;2.50;;;;;11.08;67.37;102686.84;6271717;22;45587;-74
2023/02/03 12:30:29;;;;;;;;;1.00;1.00;;;;;11.10;67.44;102694.66;6271934;22;45613;-73
2023/02/03 12:33:05;;;;;;;;;2.00;1.00;;;;;11.08;67.74;102685.97;6271523;22;45587;-73
2023/02/03 12:35:42;;;;;;;;;3.00;2.00;;;;;11.14;67.36;102676.09;6272253;22;45550;-74
2023/02/03 12:38:30;;;;;;;;;1.75;1.50;;;;;11.16;67.25;102676.06;6270922;22;47195;-73
2023/02/03 12:44:24;;;;;;;;;1.75;1.75;;;;;11.15;67.37;102662.09;6271418;22;45654;-73
2023/02/03 12:47:13;;;;;;;;;1.50;1.00;;;;;11.18;67.42;102654.06;6271973;22;45641;-71
2023/02/03 12:49:50;;;;;;;;;1.75;1.00;;;;;11.21;67.31;102659.22;6244119;22;48811;-72
2023/02/03 12:52:30;;;;;;;;;2.00;2.00;;;;;11.27;67.32;102669.47;6272602;22;45888;-74
2023/02/03 12:55:07;;;;;;;;;2.50;1.75;;;;;11.30;67.44;102668.47;6272194;22;45716;-73
2023/02/03 12:57:40;;;;;;;;;1.75;1.75;;;;;11.32;67.07;102650.91;6271527;22;45699;-71
2023/02/03 13:00:18;;;;;;;;;2.00;2.00;;;;;11.33;67.02;102650.00;6271230;22;46747;-74
2023/02/03 13:03:12;;;;;;;;;1.25;1.25;;;;;11.34;67.07;102646.41;6272043;22;45472;-72